Time;durP1;ratioP1;P1;durP2;ratioP2;P2;SDS_P1;SDS_P2;PMS_P1;PMS_P2;Temp;Humidity;BMP_temperature;BMP_pressure;BME280_temperature;BME280_humidity;BME280_pressure;Samples;Min_cycle;Max_cycle;Signal;HPM_P1;HPM_P2
2022/10/09 02:46:04;;;;;;;34.00;31.57;;;7.30;99.90;;;;;;5476702;23;20562;-74
2022/10/09 02:48:32;;;;;;;36.43;34.03;;;7.30;99.90;;;;;;4948408;28;20547;-73
2022/10/09 02:51:00;;;;;;;36.70;34.13;;;7.20;99.90;;;;;;4950577;28;20527;-75
2022/10/09 02:53:26;;;;;;;35.67;33.37;;;7.20;99.90;;;;;;4951795;28;20452;-74
2022/10/09 02:55:53;;;;;;;36.50;34.00;;;7.10;99.90;;;;;;4951721;28;20483;-74
2022/10/09 02:58:20;;;;;;;34.60;32.27;;;7.10;99.90;;;;;;4952151;28;20453;-73
2022/10/09 03:00:48;;;;;;;34.03;31.73;;;7.00;99.90;;;;;;4951229;28;20491;-74
2022/10/09 03:03:16;;;;;;;34.73;32.07;;;7.10;99.90;;;;;;4950904;28;20460;-74
2022/10/09 03:05:43;;;;;;;36.33;33.63;;;7.00;99.90;;;;;;4950990;28;20456;-74
2022/10/09 03:08:09;;;;;;;34.97;32.67;;;6.90;99.90;;;;;;4951201;28;20456;-74
2022/10/09 03:10:37;;;;;;;35.70;33.33;;;6.90;99.90;;;;;;4951410;28;20449;-74
2022/10/09 03:13:04;;;;;;;34.40;32.13;;;6.90;99.90;;;;;;4951043;28;20483;-74
2022/10/09 03:15:33;;;;;;;35.90;33.70;;;6.90;99.90;;;;;;4950841;28;20453;-74
2022/10/09 03:18:00;;;;;;;36.27;33.73;;;6.90;99.90;;;;;;4950951;28;20464;-74
2022/10/09 03:20:29;;;;;;;36.13;33.30;;;6.90;99.90;;;;;;4950665;28;20538;-74
2022/10/09 03:22:56;;;;;;;35.53;32.93;;;6.90;99.90;;;;;;4950658;28;20790;-74
2022/10/09 03:25:24;;;;;;;35.13;32.63;;;6.90;99.90;;;;;;4950911;28;20452;-74
2022/10/09 03:27:50;;;;;;;36.03;33.53;;;6.80;99.90;;;;;;4950992;28;20468;-75
2022/10/09 03:30:17;;;;;;;36.50;33.77;;;6.80;99.90;;;;;;4950703;28;20950;-75
2022/10/09 03:32:44;;;;;;;36.70;34.50;;;6.80;99.90;;;;;;4952205;28;20456;-75
2022/10/09 03:35:10;;;;;;;40.10;36.60;;;6.80;99.90;;;;;;4950557;28;20460;-74
2022/10/09 03:37:38;;;;;;;36.30;33.53;;;6.80;99.90;;;;;;4951070;28;20456;-74
2022/10/09 03:40:06;;;;;;;33.83;31.20;;;6.80;99.90;;;;;;4950840;28;20963;-74
2022/10/09 03:42:33;;;;;;;35.30;32.70;;;6.80;99.90;;;;;;4950893;28;20456;-75
2022/10/09 03:45:03;;;;;;;35.90;33.40;;;6.80;99.90;;;;;;4954172;28;20841;-74
2022/10/09 03:47:30;;;;;;;37.97;35.10;;;6.70;99.90;;;;;;4954377;28;20488;-74
2022/10/09 03:49:56;;;;;;;37.17;33.87;;;6.70;99.90;;;;;;4954685;28;20711;-74
2022/10/09 03:52:23;;;;;;;37.10;33.97;;;6.70;99.90;;;;;;4954577;28;20460;-74
2022/10/09 03:54:51;;;;;;;35.43;33.13;;;6.70;99.90;;;;;;4954976;28;20498;-74
2022/10/09 03:57:18;;;;;;;36.37;33.67;;;6.70;99.90;;;;;;4954668;28;20456;-74
2022/10/09 03:59:44;;;;;;;39.13;35.60;;;6.70;99.90;;;;;;4953964;28;20819;-74
2022/10/09 04:02:11;;;;;;;37.57;34.87;;;6.70;99.90;;;;;;4954151;28;20480;-75
2022/10/09 04:04:38;;;;;;;36.87;33.97;;;6.70;99.90;;;;;;4954377;28;20839;-74
2022/10/09 04:07:05;;;;;;;37.17;34.67;;;6.80;99.90;;;;;;4954559;28;20475;-74
2022/10/09 04:09:31;;;;;;;37.40;34.80;;;6.80;99.90;;;;;;4954139;28;20965;-75
2022/10/09 04:11:59;;;;;;;36.93;33.90;;;6.80;99.90;;;;;;4953913;28;20448;-74
2022/10/09 04:14:26;;;;;;;36.43;33.63;;;6.70;99.90;;;;;;4953973;28;20456;-73
2022/10/09 04:16:53;;;;;;;36.20;33.83;;;6.70;99.90;;;;;;4954118;28;20456;-74
2022/10/09 04:19:19;;;;;;;37.30;34.90;;;6.70;99.90;;;;;;4954317;28;20449;-74
2022/10/09 04:21:46;;;;;;;37.90;35.40;;;6.60;99.90;;;;;;4953732;28;20484;-74
2022/10/09 04:24:13;;;;;;;37.43;34.73;;;6.60;99.90;;;;;;4953701;28;20455;-74
2022/10/09 04:26:39;;;;;;;37.63;34.83;;;6.60;99.90;;;;;;4953514;28;20459;-74
2022/10/09 04:29:07;;;;;;;35.60;32.97;;;6.60;99.90;;;;;;4954005;28;20459;-75
2022/10/09 04:31:34;;;;;;;38.60;35.60;;;6.60;99.90;;;;;;4954047;28;20459;-74
2022/10/09 04:34:01;;;;;;;38.07;35.37;;;6.60;99.90;;;;;;4953748;28;20463;-75
2022/10/09 04:36:28;;;;;;;38.43;35.83;;;6.60;99.90;;;;;;4953227;28;20634;-74
2022/10/09 04:38:54;;;;;;;38.60;36.00;;;6.60;99.90;;;;;;4953454;28;20789;-74
2022/10/09 04:41:21;;;;;;;38.97;35.80;;;6.50;99.90;;;;;;4953565;28;20499;-74
2022/10/09 04:43:48;;;;;;;38.20;35.50;;;6.40;99.90;;;;;;4953599;28;20552;-73
2022/10/09 04:46:16;;;;;;;41.13;38.13;;;6.30;99.90;;;;;;4953021;28;20840;-74
2022/10/09 04:48:44;;;;;;;40.93;37.90;;;6.40;99.90;;;;;;4952612;28;20460;-75
2022/10/09 04:51:11;;;;;;;39.40;36.60;;;6.50;99.90;;;;;;4952683;28;20449;-75
2022/10/09 04:53:39;;;;;;;41.60;38.10;;;6.50;99.90;;;;;;4953077;28;20467;-75
2022/10/09 04:56:07;;;;;;;39.87;37.00;;;6.60;99.90;;;;;;4953177;28;20457;-76
2022/10/09 04:58:35;;;;;;;41.70;38.70;;;6.70;99.90;;;;;;4953332;28;20463;-76
2022/10/09 05:01:06;;;;;;;40.07;37.27;;;6.70;99.90;;;;;;4952793;28;20826;-77
2022/10/09 05:03:35;;;;;;;40.67;37.70;;;6.70;99.90;;;;;;4953365;28;20604;-76
2022/10/09 05:06:02;;;;;;;40.00;37.20;;;6.70;99.90;;;;;;4953338;28;20452;-76
2022/10/09 05:08:31;;;;;;;40.33;37.43;;;6.80;99.90;;;;;;4953124;28;20769;-76
2022/10/09 05:11:00;;;;;;;40.63;37.70;;;6.70;99.90;;;;;;4953019;28;20475;-74
2022/10/09 05:13:29;;;;;;;39.57;36.37;;;6.60;99.90;;;;;;4952889;28;20534;-74
2022/10/09 05:15:56;;;;;;;38.70;35.80;;;6.60;99.90;;;;;;4952816;28;20453;-75
2022/10/09 05:18:23;;;;;;;39.23;36.60;;;6.50;99.90;;;;;;4952922;29;20452;-74
2022/10/09 05:20:51;;;;;;;42.53;38.60;;;6.50;99.90;;;;;;4952458;28;20456;-75
2022/10/09 05:23:17;;;;;;;39.80;36.60;;;6.50;99.90;;;;;;4952470;28;20448;-75
2022/10/09 05:25:53;;;;;;;40.20;37.20;;;6.50;99.90;;;;;;4952373;28;20471;-75
2022/10/09 05:28:20;;;;;;;40.63;37.50;;;6.40;99.90;;;;;;4952791;28;20462;-76
2022/10/09 05:30:46;;;;;;;41.30;38.07;;;6.30;99.90;;;;;;4952387;28;20471;-76
2022/10/09 05:33:13;;;;;;;40.07;36.73;;;6.40;99.90;;;;;;4952518;28;20453;-76
2022/10/09 05:35:40;;;;;;;39.27;36.37;;;6.50;99.90;;;;;;4952208;28;20453;-77
2022/10/09 05:38:08;;;;;;;38.57;35.70;;;6.60;99.90;;;;;;4952932;29;20457;-77
2022/10/09 05:40:34;;;;;;;41.30;37.40;;;6.60;99.90;;;;;;4952536;28;20452;-74
2022/10/09 05:43:01;;;;;;;38.00;35.13;;;6.70;99.90;;;;;;4952336;29;20513;-74
2022/10/09 05:45:28;;;;;;;39.40;36.60;;;6.80;99.90;;;;;;4952229;28;20777;-76
2022/10/09 05:47:54;;;;;;;40.23;37.00;;;6.80;99.90;;;;;;4952445;29;21022;-76
2022/10/09 05:50:21;;;;;;;39.90;36.37;;;6.80;99.90;;;;;;4952716;29;20910;-75
2022/10/09 05:52:48;;;;;;;38.33;35.43;;;6.80;99.90;;;;;;4952616;29;20861;-74
2022/10/09 05:55:16;;;;;;;37.73;35.13;;;6.80;99.90;;;;;;4952350;29;20567;-75
2022/10/09 05:57:43;;;;;;;41.70;38.37;;;6.80;99.90;;;;;;4952316;29;20461;-76
2022/10/09 06:00:11;;;;;;;38.83;35.97;;;6.90;99.90;;;;;;4952168;28;20979;-75
2022/10/09 06:02:38;;;;;;;39.60;36.50;;;6.90;99.90;;;;;;4952125;29;20492;-75
2022/10/09 06:05:05;;;;;;;39.23;36.20;;;6.90;99.90;;;;;;4952160;29;20918;-77
2022/10/09 06:07:32;;;;;;;41.37;37.67;;;6.80;99.90;;;;;;4951965;28;20456;-76
2022/10/09 06:09:59;;;;;;;43.67;39.77;;;6.80;99.90;;;;;;4952216;29;20467;-78
2022/10/09 06:12:27;;;;;;;42.37;38.03;;;6.80;99.90;;;;;;4951844;29;20457;-79
2022/10/09 06:14:53;;;;;;;43.00;39.10;;;6.80;99.90;;;;;;4952390;29;20449;-78
2022/10/09 06:17:20;;;;;;;44.43;40.53;;;6.90;99.90;;;;;;4952989;29;20819;-76
2022/10/09 06:19:47;;;;;;;93.53;49.97;;;7.20;99.90;;;;;;4952115;29;20451;-76
2022/10/09 06:22:14;;;;;;;49.77;44.63;;;7.70;99.90;;;;;;4951988;29;21239;-76
2022/10/09 06:24:40;;;;;;;46.80;42.27;;;8.10;99.90;;;;;;4951969;29;20471;-78
2022/10/09 06:27:07;;;;;;;48.17;43.00;;;8.50;99.90;;;;;;4952348;29;20467;-76
2022/10/09 06:29:35;;;;;;;50.67;45.73;;;8.90;99.90;;;;;;4952220;29;20455;-76
2022/10/09 06:32:02;;;;;;;48.70;43.70;;;9.30;99.90;;;;;;4951903;29;20456;-77
2022/10/09 06:34:28;;;;;;;44.87;40.40;;;9.60;99.90;;;;;;4951710;29;20829;-76
2022/10/09 06:36:55;;;;;;;42.90;39.10;;;9.90;99.90;;;;;;4951712;29;20475;-77
2022/10/09 06:39:22;;;;;;;44.27;40.50;;;10.00;99.90;;;;;;4951916;29;20463;-78
2022/10/09 06:41:49;;;;;;;42.53;38.93;;;10.50;99.90;;;;;;4951989;29;20511;-77
2022/10/09 06:44:16;;;;;;;38.83;36.33;;;11.00;99.90;;;;;;4952266;29;20456;-81
2022/10/09 06:46:45;;;;;;;38.67;36.10;;;11.10;99.90;;;;;;4951443;28;20488;-75
2022/10/09 06:49:12;;;;;;;39.10;36.30;;;11.40;99.90;;;;;;4951743;28;20453;-75
2022/10/09 06:51:41;;;;;;;34.20;31.90;;;11.60;99.90;;;;;;4951642;29;20448;-75
2022/10/09 06:54:12;;;;;;;32.17;30.27;;;12.00;99.90;;;;;;4951506;29;20456;-75
2022/10/09 06:56:39;;;;;;;31.57;29.27;;;12.30;99.90;;;;;;4951692;29;20480;-75
2022/10/09 06:59:07;;;;;;;29.83;28.03;;;12.70;99.90;;;;;;4951771;29;20456;-76
2022/10/09 07:01:34;;;;;;;28.27;26.57;;;13.10;99.90;;;;;;4951448;29;20602;-77
2022/10/09 07:04:05;;;;;;;25.87;24.57;;;13.50;99.90;;;;;;4951467;29;20476;-77
2022/10/09 07:06:33;;;;;;;24.10;22.70;;;13.80;99.90;;;;;;4951461;29;20954;-78
2022/10/09 07:09:01;;;;;;;21.47;20.47;;;14.00;99.90;;;;;;4951627;29;20801;-77
2022/10/09 07:11:30;;;;;;;19.70;18.50;;;14.30;99.90;;;;;;4951338;29;20455;-77
2022/10/09 07:13:59;;;;;;;19.93;18.60;;;14.50;99.90;;;;;;4951552;29;20460;-76
2022/10/09 07:16:28;;;;;;;17.03;15.87;;;15.20;99.90;;;;;;4951177;29;20829;-76
2022/10/09 07:18:55;;;;;;;16.13;15.23;;;15.50;99.90;;;;;;4950683;28;20456;-74
2022/10/09 07:21:24;;;;;;;15.50;14.70;;;15.80;99.90;;;;;;4951408;29;20460;-73
2022/10/09 07:23:52;;;;;;;15.77;14.97;;;16.60;99.90;;;;;;4951435;29;20529;-76
2022/10/09 07:26:22;;;;;;;15.83;14.83;;;17.00;99.90;;;;;;4951245;29;20925;-76
2022/10/09 07:28:49;;;;;;;15.27;14.47;;;17.50;99.90;;;;;;4951053;29;20456;-74
2022/10/09 07:31:16;;;;;;;14.73;13.80;;;17.70;99.90;;;;;;4950795;29;20958;-73
2022/10/09 07:33:46;;;;;;;14.53;13.10;;;18.30;99.90;;;;;;4951032;29;20457;-75
2022/10/09 07:36:13;;;;;;;13.63;12.93;;;18.80;99.90;;;;;;4951014;29;20809;-72
2022/10/09 07:38:41;;;;;;;13.07;12.47;;;18.80;99.90;;;;;;4950639;28;20830;-72
2022/10/09 07:41:09;;;;;;;13.63;12.97;;;18.50;99.90;;;;;;4950940;29;20456;-72
2022/10/09 07:43:37;;;;;;;14.57;13.77;;;18.50;99.90;;;;;;4950847;29;21032;-73
2022/10/09 07:46:06;;;;;;;13.77;13.03;;;18.80;99.10;;;;;;4950746;28;20468;-74
2022/10/09 07:48:34;;;;;;;14.63;13.63;;;19.10;98.40;;;;;;4950663;28;20457;-71
2022/10/09 07:51:08;;;;;;;14.73;13.77;;;19.50;98.10;;;;;;4950611;28;20533;-73
2022/10/09 07:53:35;;;;;;;14.93;14.13;;;19.20;96.60;;;;;;4948900;29;20552;-72
2022/10/09 07:56:04;;;;;;;14.03;13.33;;;19.30;96.50;;;;;;4949001;29;20459;-72
2022/10/09 07:58:31;;;;;;;13.90;13.00;;;19.40;96.70;;;;;;4949838;29;20452;-72
2022/10/09 08:01:03;;;;;;;13.47;12.77;;;19.80;95.10;;;;;;4950286;29;20626;-73
2022/10/09 08:03:30;;;;;;;14.40;13.30;;;20.40;93.80;;;;;;4950544;29;20503;-72
2022/10/09 08:05:57;;;;;;;13.30;12.50;;;20.50;92.50;;;;;;4950464;29;21178;-71
2022/10/09 08:08:24;;;;;;;13.07;12.47;;;20.70;92.60;;;;;;4950577;29;20456;-74
2022/10/09 08:10:51;;;;;;;14.13;13.33;;;21.60;91.40;;;;;;4950575;29;20456;-74
2022/10/09 08:13:19;;;;;;;13.97;12.97;;;22.00;90.20;;;;;;4950409;29;20452;-74
2022/10/09 08:15:45;;;;;;;15.20;14.33;;;21.30;90.70;;;;;;4950682;29;20457;-75
2022/10/09 08:18:13;;;;;;;14.07;13.43;;;21.80;90.30;;;;;;4950889;29;20490;-75
2022/10/09 08:20:40;;;;;;;14.00;13.23;;;22.50;88.30;;;;;;4950525;29;20452;-75
2022/10/09 08:23:06;;;;;;;14.67;13.87;;;22.40;87.10;;;;;;4950808;29;20496;-76
2022/10/09 08:25:35;;;;;;;15.20;14.27;;;22.80;84.70;;;;;;4950909;29;20478;-76
2022/10/09 08:28:01;;;;;;;14.53;13.63;;;22.40;85.10;;;;;;4950677;29;20503;-74
2022/10/09 08:30:30;;;;;;;14.80;13.73;;;22.30;87.10;;;;;;4949327;28;20834;-75
2022/10/09 08:32:56;;;;;;;14.40;13.40;;;23.00;84.80;;;;;;4953689;29;20562;-76
2022/10/09 08:35:23;;;;;;;14.23;13.43;;;23.40;81.40;;;;;;4952133;29;20456;-75
2022/10/09 08:37:50;;;;;;;13.63;13.03;;;23.60;80.20;;;;;;4954190;29;20463;-75
2022/10/09 08:40:18;;;;;;;14.30;13.50;;;23.10;81.20;;;;;;4953830;29;20833;-75
2022/10/09 08:42:52;;;;;;;14.40;13.50;;;23.60;78.30;;;;;;4953814;29;20849;-75
2022/10/09 08:45:19;;;;;;;13.90;13.20;;;23.30;79.50;;;;;;4954002;28;21012;-76
2022/10/09 08:47:55;;;;;;;15.07;14.17;;;23.00;79.90;;;;;;4953693;29;20480;-75
2022/10/09 08:50:25;;;;;;;14.90;14.10;;;24.00;76.00;;;;;;4954013;29;20552;-75
2022/10/09 08:52:58;;;;;;;13.77;12.97;;;23.30;78.70;;;;;;4953938;29;20445;-77
2022/10/09 08:55:27;;;;;;;14.30;13.60;;;23.40;78.50;;;;;;4953766;29;20459;-75
2022/10/09 08:57:56;;;;;;;15.10;14.10;;;24.20;76.00;;;;;;4953647;29;20459;-76
2022/10/09 09:00:26;;;;;;;14.40;13.50;;;25.00;74.00;;;;;;4953583;29;20456;-75
2022/10/09 09:03:11;;;;;;;14.70;13.80;;;25.00;73.30;;;;;;4953490;29;20857;-76
2022/10/09 09:05:44;;;;;;;14.60;13.90;;;25.20;72.20;;;;;;4953488;29;20449;-75
2022/10/09 09:08:21;;;;;;;13.70;13.03;;;25.40;69.60;;;;;;4953390;29;20487;-76
2022/10/09 09:10:55;;;;;;;13.30;12.70;;;25.10;69.80;;;;;;4953348;29;20456;-76
2022/10/09 09:13:49;;;;;;;14.10;13.40;;;24.90;66.60;;;;;;4953419;28;20452;-76
2022/10/09 09:16:28;;;;;;;12.60;12.00;;;23.10;69.60;;;;;;4953025;29;20456;-74
2022/10/09 09:19:16;;;;;;;11.80;11.20;;;21.50;72.10;;;;;;4953051;29;20789;-77
2022/10/09 09:21:47;;;;;;;12.10;11.63;;;21.30;73.80;;;;;;4952931;29;21014;-73
2022/10/09 09:24:18;;;;;;;12.53;11.87;;;21.10;74.00;;;;;;4952764;28;20515;-75
2022/10/09 09:26:50;;;;;;;11.80;11.20;;;20.30;77.10;;;;;;4952930;29;21025;-76
2022/10/09 09:29:22;;;;;;;12.30;11.47;;;20.30;78.70;;;;;;4953109;29;20555;-75
2022/10/09 09:31:52;;;;;;;11.10;10.70;;;20.50;77.90;;;;;;4953177;29;20825;-76
2022/10/09 09:34:24;;;;;;;12.50;11.50;;;20.50;77.80;;;;;;4953184;29;20859;-75
2022/10/09 09:36:55;;;;;;;11.50;11.00;;;20.10;77.70;;;;;;4952884;29;20456;-76
2022/10/09 09:39:24;;;;;;;12.13;11.30;;;20.50;76.60;;;;;;4952871;29;20452;-77
2022/10/09 09:41:52;;;;;;;11.40;10.90;;;20.60;75.50;;;;;;4951784;28;20963;-75
2022/10/09 09:44:19;;;;;;;11.80;11.03;;;20.90;76.00;;;;;;4952777;29;20488;-77
2022/10/09 09:46:49;;;;;;;12.10;11.50;;;21.70;75.10;;;;;;4952367;28;20492;-76
2022/10/09 09:49:17;;;;;;;11.80;11.20;;;22.60;71.90;;;;;;4952565;29;20460;-77
2022/10/09 09:51:46;;;;;;;11.53;11.13;;;23.10;71.30;;;;;;4952439;29;20456;-75
2022/10/09 09:54:20;;;;;;;11.00;10.47;;;23.30;70.00;;;;;;4952696;29;20453;-77
2022/10/09 09:56:48;;;;;;;11.23;10.73;;;23.40;70.60;;;;;;4952508;29;20484;-75
2022/10/09 09:59:32;;;;;;;12.03;11.53;;;23.60;69.60;;;;;;4952446;29;20943;-75
2022/10/09 10:02:04;;;;;;;11.77;11.07;;;23.30;68.70;;;;;;4952697;29;20802;-77
2022/10/09 10:04:30;;;;;;;11.20;10.80;;;23.20;69.70;;;;;;4952618;29;20468;-74
2022/10/09 10:06:59;;;;;;;11.67;11.17;;;23.20;70.60;;;;;;4952311;29;20453;-76
2022/10/09 10:09:25;;;;;;;12.50;12.00;;;23.50;68.80;;;;;;4952284;29;20452;-76
2022/10/09 10:11:56;;;;;;;10.80;10.40;;;23.70;66.60;;;;;;4952450;29;20472;-76
2022/10/09 10:14:23;;;;;;;11.10;10.70;;;23.00;66.00;;;;;;4952250;29;20449;-77
2022/10/09 10:16:51;;;;;;;10.93;10.43;;;22.50;69.10;;;;;;4952128;29;20456;-76
2022/10/09 10:19:23;;;;;;;11.00;10.40;;;22.40;67.50;;;;;;4951987;29;20456;-75
2022/10/09 10:21:56;;;;;;;10.47;9.80;;;22.50;68.20;;;;;;4952256;29;20464;-76
2022/10/09 10:24:27;;;;;;;11.87;11.27;;;22.10;67.10;;;;;;4951786;29;20484;-76
2022/10/09 10:27:00;;;;;;;11.40;10.90;;;22.90;68.10;;;;;;4951764;29;20484;-76
2022/10/09 10:29:33;;;;;;;10.03;9.53;;;23.70;65.70;;;;;;4951653;29;20559;-76
2022/10/09 10:32:05;;;;;;;10.83;10.43;;;23.40;63.60;;;;;;4951525;29;20461;-76
2022/10/09 10:34:36;;;;;;;10.87;10.37;;;22.90;64.10;;;;;;4951715;29;20819;-76
2022/10/09 10:37:12;;;;;;;10.73;10.33;;;22.30;67.30;;;;;;4951771;29;20486;-76
2022/10/09 10:39:47;;;;;;;11.10;10.53;;;22.40;67.70;;;;;;4951452;29;20456;-77
2022/10/09 10:42:21;;;;;;;11.07;10.33;;;23.00;65.70;;;;;;4951389;29;20808;-77
2022/10/09 10:44:52;;;;;;;10.97;10.53;;;22.80;64.80;;;;;;4951611;28;20448;-77
2022/10/09 10:47:25;;;;;;;10.60;10.23;;;22.20;65.80;;;;;;4951658;29;20985;-76
2022/10/09 10:49:52;;;;;;;13.67;12.80;;;22.50;67.00;;;;;;4951528;29;20455;-74
2022/10/09 10:52:34;;;;;;;11.53;11.00;;;22.50;66.60;;;;;;4951321;28;20814;-76
2022/10/09 10:55:14;;;;;;;11.00;10.60;;;22.60;65.80;;;;;;4951074;29;20465;-77
2022/10/09 10:57:52;;;;;;;11.17;10.40;;;23.30;65.80;;;;;;4950991;29;20444;-76
2022/10/09 11:00:18;;;;;;;10.87;10.27;;;24.60;64.50;;;;;;4951106;29;20571;-76
2022/10/09 11:03:06;;;;;;;11.00;10.50;;;25.00;61.80;;;;;;4950858;29;20487;-77
2022/10/09 11:05:45;;;;;;;11.30;10.80;;;23.30;63.60;;;;;;4951018;29;20907;-77
2022/10/09 11:08:40;;;;;;;11.57;11.10;;;22.10;66.50;;;;;;4950890;29;20962;-76
2022/10/09 11:11:17;;;;;;;11.30;10.80;;;22.50;66.10;;;;;;4950933;28;20460;-76
2022/10/09 11:13:53;;;;;;;11.53;11.03;;;22.20;67.00;;;;;;4950929;29;20947;-76
2022/10/09 11:16:40;;;;;;;11.17;10.67;;;22.20;66.00;;;;;;4951149;29;20818;-77
2022/10/09 11:19:22;;;;;;;11.70;11.20;;;22.10;67.40;;;;;;4950975;28;20459;-75
2022/10/09 11:21:59;;;;;;;11.27;10.77;;;22.80;65.70;;;;;;4951027;28;20920;-76
2022/10/09 11:24:46;;;;;;;11.43;10.93;;;23.10;63.10;;;;;;4950594;29;20506;-76
2022/10/09 11:27:20;;;;;;;11.57;10.83;;;22.00;65.60;;;;;;4950594;29;20479;-76
2022/10/09 11:29:52;;;;;;;11.67;11.17;;;21.90;65.90;;;;;;4950635;29;20819;-76
2022/10/09 11:32:24;;;;;;;10.67;10.27;;;22.40;65.50;;;;;;4951076;29;20540;-75
2022/10/09 11:34:58;;;;;;;10.57;10.17;;;22.40;65.50;;;;;;4950949;29;20453;-76
2022/10/09 11:37:29;;;;;;;11.40;10.90;;;22.40;65.70;;;;;;4950709;29;20808;-76
2022/10/09 11:39:56;;;;;;;10.70;10.30;;;21.70;66.40;;;;;;4950799;29;20883;-77
2022/10/09 11:42:25;;;;;;;10.20;9.80;;;21.50;67.40;;;;;;4951094;29;20456;-76
2022/10/09 11:45:05;;;;;;;11.27;10.43;;;21.70;68.50;;;;;;4950363;28;21013;-76
2022/10/09 11:47:39;;;;;;;11.13;10.60;;;22.20;67.50;;;;;;4950581;29;20853;-75
2022/10/09 11:50:29;;;;;;;10.33;9.93;;;22.30;66.00;;;;;;4950968;29;20460;-77
2022/10/09 11:53:01;;;;;;;11.00;10.40;;;22.40;65.00;;;;;;4950643;29;20460;-76
2022/10/09 11:55:31;;;;;;;10.87;10.37;;;21.70;66.70;;;;;;4950523;29;20468;-76
2022/10/09 11:58:13;;;;;;;11.07;10.57;;;22.40;67.00;;;;;;4950706;29;20852;-74
2022/10/09 12:00:43;;;;;;;11.40;10.87;;;23.00;64.60;;;;;;4950410;29;20985;-75
2022/10/09 12:03:25;;;;;;;11.03;10.43;;;22.90;64.40;;;;;;4950548;28;20491;-75
2022/10/09 12:06:01;;;;;;;10.70;10.10;;;22.20;65.20;;;;;;4954421;29;20456;-76
2022/10/09 12:08:28;;;;;;;10.27;9.87;;;21.30;66.60;;;;;;4954610;28;20448;-75
2022/10/09 12:10:58;;;;;;;11.07;10.40;;;21.10;67.70;;;;;;4954549;29;20552;-77
2022/10/09 12:13:43;;;;;;;10.50;9.90;;;20.70;68.70;;;;;;4954262;29;20449;-76
2022/10/09 12:16:26;;;;;;;10.30;9.80;;;20.80;69.20;;;;;;4954130;29;20534;-75
2022/10/09 12:18:54;;;;;;;11.30;10.60;;;20.90;68.50;;;;;;4954325;29;20464;-76
2022/10/09 12:21:25;;;;;;;11.17;10.47;;;20.90;68.70;;;;;;4954416;29;20490;-77
2022/10/09 12:23:53;;;;;;;10.70;10.30;;;21.60;67.40;;;;;;4954390;29;21017;-76
2022/10/09 12:26:22;;;;;;;11.03;10.43;;;21.90;65.80;;;;;;4954942;29;20463;-75
2022/10/09 12:28:53;;;;;;;10.60;10.20;;;21.70;66.60;;;;;;4954812;29;20452;-74
2022/10/09 12:31:24;;;;;;;9.87;9.47;;;21.80;66.70;;;;;;4955029;29;20478;-76
2022/10/09 12:33:55;;;;;;;9.60;9.13;;;21.60;66.40;;;;;;4954246;28;20444;-76
2022/10/09 12:36:25;;;;;;;10.20;9.60;;;21.20;67.10;;;;;;4953962;29;20448;-76
2022/10/09 12:38:52;;;;;;;10.47;10.00;;;21.50;66.90;;;;;;4953588;29;20463;-76
2022/10/09 12:41:23;;;;;;;10.60;10.20;;;21.60;67.50;;;;;;4953655;29;20464;-75
2022/10/09 12:43:54;;;;;;;10.37;9.87;;;21.80;66.70;;;;;;4953448;29;20603;-76
2022/10/09 12:46:29;;;;;;;10.90;10.13;;;21.80;66.00;;;;;;4953743;28;20583;-76
2022/10/09 12:48:57;;;;;;;10.90;10.30;;;21.80;66.20;;;;;;4953393;29;21105;-78
2022/10/09 12:51:25;;;;;;;10.50;9.40;;;21.90;66.90;;;;;;4954011;29;20555;-78
2022/10/09 12:53:53;;;;;;;10.43;9.93;;;21.90;66.70;;;;;;4953901;29;20456;-76
2022/10/09 12:56:24;;;;;;;11.03;10.50;;;22.00;66.00;;;;;;4953751;29;20456;-77
2022/10/09 12:58:53;;;;;;;9.27;8.87;;;21.70;66.90;;;;;;4953365;29;20448;-78
2022/10/09 13:01:20;;;;;;;10.13;9.53;;;21.70;65.80;;;;;;4953710;29;20453;-78
2022/10/09 13:03:54;;;;;;;9.97;9.57;;;21.40;65.90;;;;;;4953254;29;20492;-78
2022/10/09 13:06:23;;;;;;;11.23;10.53;;;21.10;66.90;;;;;;4953728;29;20459;-78
2022/10/09 13:08:53;;;;;;;10.40;10.00;;;21.00;67.00;;;;;;4953614;29;20460;-77
2022/10/09 13:11:24;;;;;;;10.77;10.27;;;20.60;67.80;;;;;;4953722;29;20950;-76
2022/10/09 13:13:53;;;;;;;10.00;9.63;;;20.40;69.10;;;;;;4953655;29;20437;-77
2022/10/09 13:16:22;;;;;;;9.40;9.00;;;20.60;69.10;;;;;;4952429;28;20448;-78
2022/10/09 13:18:56;;;;;;;9.33;8.73;;;20.90;68.00;;;;;;4953621;28;20488;-77
2022/10/09 13:21:26;;;;;;;9.80;9.40;;;20.80;67.20;;;;;;4953403;29;20530;-77
2022/10/09 13:23:55;;;;;;;10.00;9.50;;;20.50;70.00;;;;;;4953269;29;20492;-76
2022/10/09 13:26:24;;;;;;;10.07;9.37;;;20.10;69.70;;;;;;4953181;28;20457;-78
2022/10/09 13:28:53;;;;;;;9.60;9.30;;;19.60;72.10;;;;;;4952814;28;20456;-76
2022/10/09 13:31:20;;;;;;;9.80;9.27;;;19.30;74.30;;;;;;4953219;28;20456;-77
2022/10/09 13:33:48;;;;;;;10.73;9.80;;;19.20;74.00;;;;;;4952988;29;20448;-77
2022/10/09 13:36:15;;;;;;;10.10;9.60;;;19.20;74.60;;;;;;4952407;29;20460;-76
2022/10/09 13:38:42;;;;;;;9.70;9.30;;;18.90;75.10;;;;;;4952638;29;20468;-76
2022/10/09 13:41:14;;;;;;;11.43;10.70;;;18.80;76.00;;;;;;4952556;29;20448;-76
2022/10/09 13:43:41;;;;;;;10.50;9.97;;;18.60;77.10;;;;;;4952300;29;21061;-76
2022/10/09 13:46:09;;;;;;;9.37;8.97;;;18.50;77.20;;;;;;4952439;28;20476;-75
2022/10/09 13:48:36;;;;;;;9.57;9.07;;;18.40;77.50;;;;;;4952646;29;20471;-77
2022/10/09 13:51:05;;;;;;;9.80;9.40;;;18.40;78.60;;;;;;4952552;29;20551;-77
2022/10/09 13:53:32;;;;;;;11.40;10.70;;;18.30;78.70;;;;;;4952507;29;20464;-76
2022/10/09 13:55:59;;;;;;;11.27;10.70;;;18.20;79.50;;;;;;4952096;28;20460;-76
2022/10/09 13:58:25;;;;;;;9.87;9.37;;;18.30;79.40;;;;;;4951942;29;20452;-77
2022/10/09 14:00:53;;;;;;;10.23;9.53;;;18.30;79.60;;;;;;4952091;29;20463;-76
2022/10/09 14:03:21;;;;;;;9.67;9.20;;;18.20;79.40;;;;;;4952385;28;20456;-76
2022/10/09 14:05:48;;;;;;;9.77;9.27;;;18.30;80.00;;;;;;4952045;29;20564;-76
2022/10/09 14:08:15;;;;;;;10.17;9.67;;;18.30;80.00;;;;;;4951955;29;20461;-75
2022/10/09 14:10:41;;;;;;;9.90;9.50;;;18.20;80.40;;;;;;4951886;29;20460;-77
2022/10/09 14:13:08;;;;;;;11.00;10.40;;;18.10;82.70;;;;;;4951776;29;20567;-77
2022/10/09 14:15:38;;;;;;;10.80;10.20;;;18.10;82.50;;;;;;4952026;28;20819;-75
2022/10/09 14:18:05;;;;;;;9.37;8.97;;;18.10;82.70;;;;;;4951976;29;20444;-74
2022/10/09 14:20:34;;;;;;;10.60;9.90;;;18.20;83.30;;;;;;4951721;29;20476;-77
2022/10/09 14:23:01;;;;;;;11.00;10.50;;;18.20;82.50;;;;;;4951530;29;20452;-76
2022/10/09 14:25:27;;;;;;;10.53;10.13;;;18.30;82.60;;;;;;4951768;29;20492;-77
2022/10/09 14:27:54;;;;;;;11.30;10.80;;;18.40;81.90;;;;;;4951192;28;20452;-78
2022/10/09 14:30:21;;;;;;;10.07;9.67;;;18.30;82.40;;;;;;4952007;29;20475;-76
2022/10/09 14:32:48;;;;;;;10.80;10.20;;;18.30;83.10;;;;;;4951435;29;20457;-76
2022/10/09 14:35:15;;;;;;;10.97;10.57;;;18.30;83.10;;;;;;4951305;29;20829;-76
2022/10/09 14:37:43;;;;;;;11.17;10.70;;;18.20;83.90;;;;;;4951203;29;20703;-77
2022/10/09 14:40:11;;;;;;;10.50;10.00;;;18.10;84.00;;;;;;4951141;29;20563;-76
2022/10/09 14:42:38;;;;;;;12.07;11.40;;;18.20;84.30;;;;;;4951287;29;20822;-76
2022/10/09 14:45:06;;;;;;;10.60;10.17;;;18.10;84.60;;;;;;4951268;28;20492;-76
2022/10/09 14:47:32;;;;;;;11.90;10.87;;;18.10;85.20;;;;;;4951086;29;20496;-77
2022/10/09 14:49:59;;;;;;;10.90;10.50;;;18.10;85.40;;;;;;4951093;29;20453;-76
2022/10/09 14:52:26;;;;;;;11.90;11.20;;;18.20;85.90;;;;;;4950805;29;20463;-77
2022/10/09 14:54:54;;;;;;;11.27;10.77;;;18.00;86.60;;;;;;4950946;29;20456;-78
2022/10/09 14:57:21;;;;;;;11.37;10.87;;;17.90;87.60;;;;;;4951312;29;20463;-77
2022/10/09 14:59:47;;;;;;;10.50;10.10;;;18.00;88.10;;;;;;4950893;29;20452;-76
2022/10/09 15:02:15;;;;;;;10.67;10.27;;;18.00;87.80;;;;;;4950902;29;20457;-76
2022/10/09 15:04:42;;;;;;;10.60;10.10;;;17.90;89.20;;;;;;4950892;29;20875;-77
2022/10/09 15:07:10;;;;;;;11.70;11.20;;;17.90;89.60;;;;;;4950950;29;20544;-77
2022/10/09 15:09:37;;;;;;;11.03;10.53;;;17.80;89.80;;;;;;4951457;29;20468;-75
2022/10/09 15:12:05;;;;;;;11.47;11.07;;;17.80;90.40;;;;;;4951255;29;20464;-77
2022/10/09 15:14:32;;;;;;;11.90;11.30;;;17.70;90.80;;;;;;4950634;29;20807;-76
2022/10/09 15:16:59;;;;;;;12.03;11.33;;;17.70;91.30;;;;;;4950626;29;20452;-77
2022/10/09 15:19:25;;;;;;;11.37;10.47;;;17.60;92.10;;;;;;4950807;29;20457;-76
2022/10/09 15:21:52;;;;;;;11.30;10.87;;;17.60;92.70;;;;;;4951045;29;20457;-77
2022/10/09 15:24:19;;;;;;;11.53;11.03;;;17.70;93.10;;;;;;4950987;29;20592;-76
2022/10/09 15:26:45;;;;;;;12.07;11.53;;;17.70;93.70;;;;;;4950434;29;20940;-76